Time;durP1;ratioP1;P1;durP2;ratioP2;P2;SDS_P1;SDS_P2;PMS_P1;PMS_P2;Temp;Humidity;BMP_temperature;BMP_pressure;BME280_temperature;BME280_humidity;BME280_pressure;Samples;Min_cycle;Max_cycle;Signal;HPM_P1;HPM_P2
2022/07/09 00:02:22;;;;;;;3.00;2.80;;;;;;;18.42;79.33;94814.38;5117967;28;20184;-71
2022/07/09 00:04:49;;;;;;;3.47;3.20;;;;;;;18.41;79.75;94821.16;5117347;28;20199;-71
2022/07/09 00:07:16;;;;;;;3.80;3.50;;;;;;;18.35;79.79;94826.38;5118229;28;20207;-71
2022/07/09 00:09:43;;;;;;;3.40;3.20;;;;;;;18.28;80.58;94821.63;5118366;28;20183;-71
2022/07/09 00:12:10;;;;;;;3.50;3.30;;;;;;;18.26;79.99;94828.81;5117868;28;20199;-71
2022/07/09 00:14:37;;;;;;;3.70;3.40;;;;;;;18.18;80.28;94833.66;5117769;28;20279;-71
2022/07/09 00:17:04;;;;;;;3.67;3.38;;;;;;;18.18;80.80;94832.88;5117103;28;20196;-71
2022/07/09 00:19:32;;;;;;;4.50;3.97;;;;;;;18.16;81.02;94833.28;5118037;28;20222;-71
2022/07/09 00:21:59;;;;;;;3.70;3.40;;;;;;;18.18;81.30;94824.50;5117720;28;20205;-71
2022/07/09 00:24:26;;;;;;;3.55;3.03;;;;;;;18.14;80.46;94821.72;5117897;28;20204;-71
2022/07/09 00:26:53;;;;;;;3.17;2.97;;;;;;;18.11;80.14;94821.75;5116871;28;20220;-71
2022/07/09 00:29:20;;;;;;;3.30;3.10;;;;;;;18.09;80.23;94818.59;5117116;28;20200;-71
2022/07/09 00:31:47;;;;;;;3.15;2.80;;;;;;;18.09;80.16;94813.78;5116797;28;20196;-70
2022/07/09 00:34:13;;;;;;;3.10;2.90;;;;;;;18.13;79.62;94810.97;5117882;28;20186;-70
2022/07/09 00:36:41;;;;;;;2.72;2.53;;;;;;;18.08;79.22;94812.19;5116874;28;20195;-70
2022/07/09 00:39:08;;;;;;;2.75;2.55;;;;;;;18.10;79.30;94807.00;5116803;28;20203;-70
2022/07/09 00:41:36;;;;;;;2.53;2.33;;;;;;;18.11;79.91;94814.16;5117575;28;20203;-70
2022/07/09 00:44:03;;;;;;;3.00;2.80;;;;;;;18.11;79.86;94807.78;5117140;28;20252;-70
2022/07/09 00:46:29;;;;;;;2.75;2.60;;;;;;;18.13;79.69;94808.97;5117265;28;20635;-70
2022/07/09 00:48:56;;;;;;;2.60;2.40;;;;;;;18.13;79.17;94808.97;5116613;28;20195;-70
2022/07/09 00:51:23;;;;;;;2.50;2.40;;;;;;;18.11;79.09;94799.41;5117072;28;20228;-70
2022/07/09 00:53:51;;;;;;;2.60;2.40;;;;;;;18.12;79.07;94806.59;5116623;28;20188;-70
2022/07/09 00:56:18;;;;;;;2.45;2.25;;;;;;;18.12;79.13;94796.25;5117287;28;20190;-70
2022/07/09 00:58:46;;;;;;;2.97;2.78;;;;;;;18.12;79.08;94795.41;5117196;28;20191;-70
2022/07/09 01:01:13;;;;;;;2.97;2.78;;;;;;;18.08;79.36;94792.66;5116692;28;20196;-70
2022/07/09 01:03:40;;;;;;;2.65;2.45;;;;;;;18.09;78.68;94787.88;5117399;28;20293;-70
2022/07/09 01:06:07;;;;;;;2.58;2.38;;;;;;;18.09;78.47;94787.88;5116534;28;20508;-70
2022/07/09 01:08:34;;;;;;;2.63;2.47;;;;;;;18.07;78.84;94785.50;5116293;28;20196;-70
2022/07/09 01:11:02;;;;;;;2.20;2.10;;;;;;;18.06;78.42;94789.50;5116982;28;20454;-70
2022/07/09 01:13:29;;;;;;;2.40;2.30;;;;;;;18.08;77.85;94789.06;5116984;28;20188;-70
2022/07/09 01:15:56;;;;;;;2.33;2.20;;;;;;;18.09;77.67;94782.31;5115939;28;20294;-70
2022/07/09 01:18:23;;;;;;;2.60;2.50;;;;;;;18.06;77.71;94783.91;5115958;28;20199;-70
2022/07/09 01:20:52;;;;;;;3.03;2.83;;;;;;;18.01;78.58;94782.34;5115781;28;20204;-70
2022/07/09 01:23:19;;;;;;;2.75;2.55;;;;;;;18.02;78.26;94783.16;5116408;28;20268;-70
2022/07/09 01:25:47;;;;;;;2.85;2.65;;;;;;;18.03;78.06;94768.78;5116373;28;20180;-70
2022/07/09 01:28:13;;;;;;;2.88;2.67;;;;;;;18.04;77.85;94775.94;5116805;28;20184;-70
2022/07/09 01:30:41;;;;;;;2.60;2.40;;;;;;;18.03;78.00;94774.34;5115873;28;20199;-70
2022/07/09 01:33:08;;;;;;;2.70;2.50;;;;;;;17.97;77.95;94769.59;5116631;28;20188;-70
2022/07/09 01:35:35;;;;;;;3.42;2.83;;;;;;;17.98;78.72;94771.22;5115969;28;20202;-70
2022/07/09 01:38:03;;;;;;;2.40;2.20;;;;;;;17.96;78.28;94765.22;5115942;28;20612;-70
2022/07/09 01:40:30;;;;;;;2.75;2.50;;;;;;;17.97;78.46;94767.63;5115604;28;20200;-70
2022/07/09 01:42:57;;;;;;;2.97;2.42;;;;;;;17.95;79.18;94772.03;5115402;28;20216;-70
2022/07/09 01:45:24;;;;;;;2.55;2.45;;;;;;;17.93;79.55;94768.84;5116588;28;20176;-70
2022/07/09 01:47:51;;;;;;;2.45;2.25;;;;;;;17.91;80.02;94766.47;5115120;28;20211;-70
2022/07/09 01:50:18;;;;;;;2.45;2.25;;;;;;;17.92;79.70;94765.25;5115521;28;20203;-70
2022/07/09 01:52:45;;;;;;;2.95;2.40;;;;;;;17.89;79.96;94773.66;5115950;28;20304;-70
2022/07/09 01:55:13;;;;;;;2.45;2.30;;;;;;;17.89;80.41;94765.28;5115319;28;20198;-70
2022/07/09 01:57:40;;;;;;;2.55;2.35;;;;;;;17.86;79.88;94771.66;5115842;28;20520;-70
2022/07/09 02:00:08;;;;;;;2.40;2.30;;;;;;;17.86;80.24;94766.09;5116258;28;20195;-70
2022/07/09 02:02:36;;;;;;;2.85;2.20;;;;;;;17.87;80.67;94762.13;5116388;28;20222;-70
2022/07/09 02:05:03;;;;;;;2.38;2.22;;;;;;;17.87;80.16;94754.53;5115656;28;20215;-70
2022/07/09 02:07:30;;;;;;;3.15;2.40;;;;;;;17.85;79.85;94765.28;5115785;28;20525;-70
2022/07/09 02:09:58;;;;;;;2.40;2.20;;;;;;;17.86;80.67;94768.88;5115647;28;20230;-71
2022/07/09 02:12:26;;;;;;;2.55;2.35;;;;;;;17.82;80.29;94771.69;5115042;28;20199;-71
2022/07/09 02:14:53;;;;;;;3.28;2.42;;;;;;;17.78;80.36;94771.69;5114625;28;20203;-71
2022/07/09 02:17:20;;;;;;;2.42;2.33;;;;;;;17.78;80.63;94770.91;5115778;28;20611;-71
2022/07/09 02:19:47;;;;;;;2.40;2.30;;;;;;;17.74;80.42;94770.91;5115019;28;20203;-71
2022/07/09 02:22:13;;;;;;;2.42;2.22;;;;;;;17.69;79.90;94774.13;5115526;28;20187;-71
2022/07/09 02:24:40;;;;;;;2.33;2.22;;;;;;;17.73;80.97;94774.09;5114861;28;20219;-71
2022/07/09 02:27:08;;;;;;;2.58;2.45;;;;;;;17.74;81.70;94782.06;5114803;28;20604;-70
2022/07/09 02:29:37;;;;;;;2.72;2.53;;;;;;;17.77;80.62;94778.50;5115754;28;20194;-70
2022/07/09 02:32:04;;;;;;;2.22;2.13;;;;;;;17.77;80.26;94781.28;5114554;28;20655;-70
2022/07/09 02:34:31;;;;;;;2.30;2.20;;;;;;;17.76;80.75;94785.28;5115620;28;20176;-70
2022/07/09 02:36:58;;;;;;;2.72;2.53;;;;;;;17.75;80.93;94786.44;5115681;28;20195;-70
2022/07/09 02:39:25;;;;;;;2.28;2.17;;;;;;;17.74;80.52;94796.00;5115760;28;20188;-70
2022/07/09 02:41:52;;;;;;;2.45;2.22;;;;;;;17.73;80.47;94793.63;5115723;28;20524;-70
2022/07/09 02:44:18;;;;;;;2.20;2.10;;;;;;;17.71;80.18;94796.00;5114789;28;20227;-70
2022/07/09 02:46:47;;;;;;;2.53;2.42;;;;;;;17.71;79.73;94788.44;5115203;28;20520;-70
2022/07/09 02:49:14;;;;;;;2.40;2.20;;;;;;;17.71;80.68;94788.44;5114925;28;20579;-70
2022/07/09 02:51:41;;;;;;;3.90;2.58;;;;;;;17.69;80.85;94796.44;5114632;28;20246;-70
2022/07/09 02:54:08;;;;;;;2.40;2.30;;;;;;;17.67;81.02;94789.66;5114626;28;20188;-70
2022/07/09 02:56:35;;;;;;;3.13;2.92;;;;;;;17.67;81.04;94789.66;5114465;28;20533;-70
2022/07/09 02:59:02;;;;;;;2.47;2.30;;;;;;;17.68;80.87;94791.25;5115108;28;20184;-70
2022/07/09 03:01:29;;;;;;;2.60;2.50;;;;;;;17.65;80.72;94786.50;5115235;28;20609;-73
2022/07/09 03:03:57;;;;;;;2.60;2.40;;;;;;;17.62;81.16;94793.69;5097184;28;20219;-73
2022/07/09 03:06:24;;;;;;;3.10;2.90;;;;;;;17.64;81.76;94802.41;5115647;28;20183;-73
2022/07/09 03:08:51;;;;;;;2.40;2.20;;;;;;;17.61;80.82;94800.47;5113972;28;20203;-73
2022/07/09 03:11:18;;;;;;;2.70;2.50;;;;;;;17.65;80.79;94808.81;5115388;28;20252;-74
2022/07/09 03:13:45;;;;;;;2.40;2.30;;;;;;;17.61;80.88;94794.06;5114706;28;20192;-75
2022/07/09 03:16:12;;;;;;;2.70;2.40;;;;;;;17.65;80.47;94804.03;5115557;28;20192;-75
2022/07/09 03:18:39;;;;;;;2.50;2.40;;;;;;;17.69;80.52;94801.22;5118974;28;20527;-74
2022/07/09 03:21:09;;;;;;;2.47;2.38;;;;;;;17.63;79.96;94800.84;5118263;28;20531;-74
2022/07/09 03:23:38;;;;;;;2.70;2.50;;;;;;;17.66;80.19;94802.81;5119177;28;20211;-74
2022/07/09 03:26:05;;;;;;;2.60;2.50;;;;;;;17.65;79.47;94798.44;5119265;28;20194;-74
2022/07/09 03:28:32;;;;;;;3.05;2.63;;;;;;;17.69;79.75;94790.06;5119098;28;20180;-74
2022/07/09 03:30:59;;;;;;;2.70;2.50;;;;;;;17.71;80.44;94802.38;5118716;28;20642;-73
2022/07/09 03:33:26;;;;;;;2.70;2.50;;;;;;;17.72;79.90;94801.22;5118470;28;20192;-74
2022/07/09 03:35:54;;;;;;;3.30;3.10;;;;;;;17.76;78.88;94793.66;5117832;28;20608;-73
2022/07/09 03:38:22;;;;;;;2.80;2.60;;;;;;;17.76;79.56;94796.44;5118859;28;20176;-74
2022/07/09 03:40:49;;;;;;;2.60;2.42;;;;;;;17.69;79.51;94807.59;5117778;28;20540;-73
2022/07/09 03:43:16;;;;;;;2.50;2.35;;;;;;;17.70;80.51;94802.81;5117886;28;20204;-73
2022/07/09 03:45:43;;;;;;;2.80;2.60;;;;;;;17.70;79.83;94800.81;5117913;28;20203;-74
2022/07/09 03:48:10;;;;;;;2.63;2.42;;;;;;;17.69;79.60;94804.00;5117933;28;20192;-74
2022/07/09 03:50:37;;;;;;;2.60;2.50;;;;;;;17.64;79.52;94801.63;5117532;28;20199;-73
2022/07/09 03:53:04;;;;;;;3.03;2.50;;;;;;;17.64;80.02;94798.84;5117024;28;20239;-73
2022/07/09 03:55:32;;;;;;;2.50;2.40;;;;;;;17.68;80.60;94805.97;5117612;28;20195;-75
2022/07/09 03:57:59;;;;;;;2.67;2.50;;;;;;;17.69;80.18;94795.66;5118222;28;20184;-75
2022/07/09 04:00:28;;;;;;;2.85;2.65;;;;;;;17.69;79.69;94807.59;5118494;28;20192;-76
2022/07/09 04:02:55;;;;;;;2.83;2.72;;;;;;;17.70;80.40;94806.38;5118327;28;20188;-74
2022/07/09 04:05:21;;;;;;;3.03;2.72;;;;;;;17.64;79.29;94805.19;5117446;28;20211;-74
2022/07/09 04:07:48;;;;;;;3.13;2.92;;;;;;;17.64;79.26;94804.41;5118304;28;20191;-73
2022/07/09 04:10:15;;;;;;;4.72;3.35;;;;;;;17.67;79.33;94806.41;5118165;28;20188;-72
2022/07/09 04:12:43;;;;;;;3.10;2.90;;;;;;;17.74;79.85;94807.16;5118162;28;20191;-72
2022/07/09 04:15:11;;;;;;;3.65;2.67;;;;;;;17.73;80.17;94807.56;5117161;28;20202;-72
2022/07/09 04:17:38;;;;;;;3.17;2.97;;;;;;;17.69;80.30;94809.59;5117744;28;20688;-72
2022/07/09 04:20:06;;;;;;;2.85;2.60;;;;;;;17.71;79.53;94813.53;5118053;28;20229;-72
2022/07/09 04:22:33;;;;;;;3.05;2.80;;;;;;;17.75;80.28;94816.31;5116935;28;20287;-76
2022/07/09 04:24:59;;;;;;;3.20;2.90;;;;;;;17.76;79.67;94820.75;5116826;28;20268;-73
2022/07/09 04:27:26;;;;;;;2.80;2.63;;;;;;;17.73;80.08;94825.09;5116314;28;20188;-73
2022/07/09 04:29:54;;;;;;;2.72;2.53;;;;;;;17.75;80.09;94830.25;5117699;28;20179;-73
2022/07/09 04:32:21;;;;;;;2.55;2.45;;;;;;;17.72;79.95;94823.53;5116635;28;20206;-73
2022/07/09 04:34:48;;;;;;;2.70;2.50;;;;;;;17.70;80.25;94820.31;5116639;28;20203;-74
2022/07/09 04:37:15;;;;;;;3.08;2.78;;;;;;;17.72;80.60;94820.72;5116675;28;20635;-74
2022/07/09 04:39:41;;;;;;;3.25;2.90;;;;;;;17.73;79.64;94816.72;5117473;28;20180;-71
2022/07/09 04:42:09;;;;;;;3.03;2.83;;;;;;;17.74;79.40;94829.47;5117581;28;20184;-71
2022/07/09 04:44:36;;;;;;;3.38;2.88;;;;;;;17.71;80.12;94816.34;5116455;28;20230;-71
2022/07/09 04:47:04;;;;;;;3.30;3.00;;;;;;;17.72;80.48;94820.72;5116341;28;20203;-70
2022/07/09 04:49:31;;;;;;;3.30;3.10;;;;;;;17.75;80.70;94810.72;5116337;28;20200;-69
2022/07/09 04:51:58;;;;;;;3.30;3.08;;;;;;;17.76;81.13;94813.16;5117128;28;20243;-69
2022/07/09 04:54:24;;;;;;;3.22;2.92;;;;;;;17.80;80.73;94804.78;5116420;28;20198;-69
2022/07/09 04:56:51;;;;;;;3.17;2.97;;;;;;;17.77;80.78;94817.53;5116319;28;20187;-69
2022/07/09 04:59:18;;;;;;;3.55;3.03;;;;;;;17.75;80.10;94810.72;5116554;28;20269;-69
2022/07/09 05:01:45;;;;;;;2.90;2.70;;;;;;;17.76;80.05;94821.53;5116960;28;20203;-69
2022/07/09 05:04:13;;;;;;;2.85;2.75;;;;;;;17.76;79.77;94821.53;5117140;28;20200;-70
2022/07/09 05:06:40;;;;;;;3.25;3.05;;;;;;;17.78;80.25;94821.91;5115879;28;20620;-69
2022/07/09 05:09:07;;;;;;;3.10;2.90;;;;;;;17.81;79.19;94820.31;5116143;28;20191;-69
2022/07/09 05:11:34;;;;;;;3.13;2.83;;;;;;;17.83;79.93;94825.47;5117038;28;20252;-69
2022/07/09 05:14:00;;;;;;;2.95;2.75;;;;;;;17.82;80.15;94823.88;5117410;28;20179;-69
2022/07/09 05:16:27;;;;;;;3.10;2.90;;;;;;;17.84;79.92;94825.09;5116780;28;20206;-70
2022/07/09 05:18:54;;;;;;;3.10;2.80;;;;;;;17.85;79.71;94829.44;5115908;28;20191;-70
2022/07/09 05:21:22;;;;;;;2.90;2.70;;;;;;;17.88;80.07;94833.44;5115992;28;20206;-69
2022/07/09 05:23:49;;;;;;;3.03;2.83;;;;;;;17.87;79.97;94829.06;5116359;28;20663;-70
2022/07/09 05:26:16;;;;;;;2.67;2.47;;;;;;;17.84;79.53;94841.03;5116455;28;20203;-70
2022/07/09 05:28:43;;;;;;;2.88;2.72;;;;;;;17.85;79.58;94840.63;5115438;28;20202;-70
2022/07/09 05:31:09;;;;;;;2.67;2.47;;;;;;;17.86;79.48;94833.03;5115725;28;20219;-70
2022/07/09 05:33:37;;;;;;;2.63;2.53;;;;;;;17.79;80.27;94837.47;5115831;28;20535;-70
2022/07/09 05:36:04;;;;;;;2.78;2.60;;;;;;;17.72;79.51;94848.63;5115889;28;20260;-70
2022/07/09 05:38:32;;;;;;;2.70;2.50;;;;;;;17.73;80.42;94847.41;5115336;28;20203;-70
2022/07/09 05:40:59;;;;;;;3.10;2.90;;;;;;;17.76;80.37;94846.63;5116147;28;20182;-70
2022/07/09 05:43:26;;;;;;;3.00;2.55;;;;;;;17.77;80.97;94845.44;5116085;28;20604;-70
2022/07/09 05:45:53;;;;;;;2.65;2.45;;;;;;;17.79;81.46;94845.84;5115656;28;20204;-70
2022/07/09 05:48:19;;;;;;;3.38;3.10;;;;;;;17.80;81.98;94841.03;5115415;28;20217;-70
2022/07/09 05:50:46;;;;;;;2.72;2.53;;;;;;;17.85;80.60;94848.19;5115882;28;20196;-70
2022/07/09 05:53:13;;;;;;;2.80;2.60;;;;;;;17.84;80.95;94846.59;5115580;28;20242;-70
2022/07/09 05:55:41;;;;;;;3.00;2.75;;;;;;;17.82;81.76;94852.56;5115404;28;20196;-70
2022/07/09 05:58:08;;;;;;;2.90;2.58;;;;;;;17.82;81.34;94849.78;5114973;28;20203;-70
2022/07/09 06:00:34;;;;;;;2.83;2.63;;;;;;;17.85;81.58;94848.19;5115293;28;20195;-70
2022/07/09 06:03:01;;;;;;;3.22;2.92;;;;;;;17.88;81.28;94853.75;5115096;28;20200;-69
2022/07/09 06:05:28;;;;;;;2.60;2.35;;;;;;;17.89;81.23;94854.53;5114941;28;20219;-70
2022/07/09 06:07:55;;;;;;;2.90;2.70;;;;;;;17.89;81.11;94851.75;5115062;28;20227;-70
2022/07/09 06:10:22;;;;;;;2.50;2.30;;;;;;;17.88;80.74;94845.38;5115735;28;20199;-70
2022/07/09 06:12:50;;;;;;;2.90;2.70;;;;;;;17.92;80.28;94859.31;5115081;28;20188;-70
2022/07/09 06:15:17;;;;;;;3.20;3.00;;;;;;;17.92;80.23;94857.31;5115579;28;20623;-70
2022/07/09 06:17:44;;;;;;;3.20;2.90;;;;;;;17.92;81.15;94856.53;5115008;28;20547;-70
2022/07/09 06:20:11;;;;;;;2.80;2.60;;;;;;;17.90;80.50;94858.91;5115002;28;20206;-70
2022/07/09 06:22:38;;;;;;;3.13;2.92;;;;;;;17.88;79.94;94859.34;5115063;28;20206;-70
2022/07/09 06:25:06;;;;;;;3.28;3.00;;;;;;;17.92;80.62;94853.75;5114422;28;20238;-70
2022/07/09 06:27:33;;;;;;;3.10;2.90;;;;;;;17.93;80.57;94860.91;5114997;28;20196;-70
2022/07/09 06:30:01;;;;;;;3.10;2.90;;;;;;;17.90;80.63;94853.34;5114538;28;20198;-70
2022/07/09 06:32:28;;;;;;;2.60;2.40;;;;;;;17.87;80.48;94859.75;5115425;28;20187;-70
2022/07/09 06:34:54;;;;;;;2.83;2.63;;;;;;;17.88;80.40;94864.13;5114414;28;20192;-70
2022/07/09 06:37:21;;;;;;;2.90;2.70;;;;;;;17.89;80.46;94862.91;5115025;28;20204;-70
2022/07/09 06:39:48;;;;;;;2.63;2.40;;;;;;;17.90;81.35;94865.31;5115303;28;20214;-70
2022/07/09 06:42:16;;;;;;;3.00;2.80;;;;;;;17.90;80.72;94868.09;5114447;28;20195;-70
2022/07/09 06:44:43;;;;;;;2.85;2.65;;;;;;;17.91;81.03;94869.69;5115436;28;20207;-70
2022/07/09 06:47:11;;;;;;;2.97;2.78;;;;;;;17.87;80.19;94860.53;5114609;28;20203;-70
2022/07/09 06:49:38;;;;;;;2.90;2.70;;;;;;;17.84;80.16;94874.50;5114703;28;20203;-70
2022/07/09 06:52:07;;;;;;;3.10;2.90;;;;;;;17.81;80.49;94867.72;5116911;28;20227;-70
2022/07/09 06:54:34;;;;;;;3.17;2.92;;;;;;;17.79;80.75;94870.94;5118589;28;20207;-70
2022/07/09 06:57:01;;;;;;;3.00;2.80;;;;;;;17.82;81.53;94868.53;5118493;28;20206;-70
2022/07/09 06:59:28;;;;;;;3.70;2.88;;;;;;;17.84;81.81;94874.50;5118859;28;20198;-70
2022/07/09 07:01:55;;;;;;;3.35;3.05;;;;;;;17.83;82.10;94867.31;5118398;28;20282;-70
2022/07/09 07:04:24;;;;;;;3.25;2.92;;;;;;;17.82;81.12;94868.53;5118637;28;20200;-70
2022/07/09 07:06:51;;;;;;;3.10;2.90;;;;;;;17.84;80.82;94874.50;5118470;28;20188;-70
2022/07/09 07:09:21;;;;;;;3.10;2.90;;;;;;;17.83;80.03;94865.34;5118550;28;20198;-70
2022/07/09 07:11:48;;;;;;;3.03;2.83;;;;;;;17.81;80.15;94867.72;5119451;28;20206;-70
2022/07/09 07:14:14;;;;;;;3.25;2.95;;;;;;;17.87;80.82;94873.69;5118607;28;20200;-70
2022/07/09 07:16:41;;;;;;;2.80;2.60;;;;;;;17.86;81.43;94866.50;5118374;28;20207;-70
2022/07/09 07:19:08;;;;;;;3.00;2.80;;;;;;;17.87;80.99;94871.69;5119242;28;20184;-70
2022/07/09 07:21:36;;;;;;;3.20;3.00;;;;;;;17.88;81.26;94866.91;5119242;28;20184;-70
2022/07/09 07:24:04;;;;;;;3.40;3.20;;;;;;;17.86;81.16;94872.88;5119070;28;20184;-69
2022/07/09 07:26:30;;;;;;;3.72;3.50;;;;;;;17.86;80.83;94872.09;5119058;28;20208;-69
2022/07/09 07:28:57;;;;;;;3.55;3.35;;;;;;;17.86;81.42;94872.88;5118973;28;20614;-69
2022/07/09 07:31:24;;;;;;;3.58;3.33;;;;;;;17.88;81.59;94872.50;5118126;28;20195;-70
2022/07/09 07:33:51;;;;;;;3.67;3.35;;;;;;;17.93;82.13;94874.84;5117931;28;20510;-70
2022/07/09 07:36:18;;;;;;;3.90;3.60;;;;;;;17.96;82.00;94866.47;5118588;28;20202;-70
2022/07/09 07:38:46;;;;;;;3.20;3.00;;;;;;;18.00;81.44;94872.03;5118813;28;20191;-70
2022/07/09 07:41:13;;;;;;;3.38;3.17;;;;;;;18.03;82.67;94862.84;5118527;28;20188;-70
2022/07/09 07:43:40;;;;;;;3.90;3.60;;;;;;;18.08;82.40;94864.41;5118495;28;20599;-70
2022/07/09 07:46:07;;;;;;;3.53;3.33;;;;;;;18.11;81.85;94863.63;5118711;28;20219;-70
2022/07/09 07:48:35;;;;;;;3.90;3.60;;;;;;;18.14;80.73;94871.19;5117955;28;20612;-70
2022/07/09 07:51:02;;;;;;;3.50;3.30;;;;;;;18.20;80.80;94872.34;5117298;28;20203;-70
2022/07/09 07:53:30;;;;;;;3.75;3.45;;;;;;;18.23;80.70;94874.34;5118484;28;20531;-70
2022/07/09 07:55:59;;;;;;;3.33;3.00;;;;;;;18.23;79.88;94874.34;5117669;28;20203;-70
2022/07/09 07:58:25;;;;;;;3.00;2.80;;;;;;;18.24;80.36;94873.13;5118507;28;20179;-70
2022/07/09 08:00:53;;;;;;;3.30;3.10;;;;;;;18.25;80.68;94872.69;5117481;28;20207;-70
2022/07/09 08:03:19;;;;;;;3.63;3.42;;;;;;;18.26;80.70;94879.91;5117989;28;20227;-70
2022/07/09 08:05:47;;;;;;;2.92;2.72;;;;;;;18.21;79.94;94877.50;5117503;28;20215;-70
2022/07/09 08:08:14;;;;;;;3.47;3.17;;;;;;;18.19;79.71;94876.31;5118378;28;20183;-70
2022/07/09 08:10:41;;;;;;;3.28;3.08;;;;;;;18.17;79.48;94873.16;5117403;28;20200;-70
2022/07/09 08:13:11;;;;;;;3.30;3.10;;;;;;;18.17;79.63;94881.53;5118150;28;20195;-70
2022/07/09 08:15:38;;;;;;;3.30;3.10;;;;;;;18.17;79.82;94868.38;5117893;28;20184;-70
2022/07/09 08:18:05;;;;;;;3.47;3.28;;;;;;;18.22;79.79;94867.94;5117873;28;20199;-70
2022/07/09 08:20:32;;;;;;;3.85;3.53;;;;;;;18.34;80.42;94871.44;5117318;28;20203;-70
2022/07/09 08:22:59;;;;;;;3.50;3.30;;;;;;;18.39;80.79;94871.84;5117664;28;20180;-70
2022/07/09 08:25:26;;;;;;;3.42;3.22;;;;;;;18.46;80.33;94869.00;5117957;28;20200;-70
2022/07/09 08:27:53;;;;;;;3.28;3.08;;;;;;;18.50;79.00;94868.97;5117990;28;20179;-70
2022/07/09 08:30:21;;;;;;;3.25;3.05;;;;;;;18.52;79.73;94870.16;5117864;28;20184;-70
2022/07/09 08:32:48;;;;;;;3.15;2.95;;;;;;;18.55;80.05;94876.91;5116642;28;20207;-70
2022/07/09 08:35:15;;;;;;;3.70;3.42;;;;;;;18.55;79.23;94862.94;5117510;28;20180;-70
2022/07/09 08:37:42;;;;;;;5.32;3.28;;;;;;;18.54;79.00;94864.16;5116755;28;20207;-70
2022/07/09 08:40:09;;;;;;;3.55;3.30;;;;;;;18.55;78.08;94873.31;5117709;28;20192;-70
2022/07/09 08:42:36;;;;;;;3.10;2.90;;;;;;;18.53;78.76;94873.75;5117352;28;20210;-70
2022/07/09 08:45:03;;;;;;;3.58;3.30;;;;;;;18.53;78.53;94866.16;5116547;28;20210;-70
2022/07/09 08:47:32;;;;;;;3.63;3.35;;;;;;;18.58;78.18;94872.50;5117288;28;20633;-70
2022/07/09 08:50:00;;;;;;;3.30;3.10;;;;;;;18.60;78.78;94876.50;5117211;28;20184;-70
2022/07/09 08:52:28;;;;;;;3.75;3.47;;;;;;;18.61;78.65;94878.06;5117326;27;20239;-70
2022/07/09 08:55:13;;;;;;;3.60;3.30;;;;;;;18.59;77.94;94876.88;5117089;28;20175;-70
2022/07/09 08:57:40;;;;;;;3.50;3.30;;;;;;;18.60;78.25;94879.28;5116537;28;20196;-70
2022/07/09 09:00:09;;;;;;;3.30;3.10;;;;;;;18.60;78.14;94875.69;5116492;28;20195;-70
2022/07/09 09:02:38;;;;;;;3.90;3.60;;;;;;;18.61;78.88;94882.88;5116510;28;20222;-70
2022/07/09 09:05:10;;;;;;;2.95;2.75;;;;;;;18.61;78.44;94878.06;5117141;28;20195;-70
2022/07/09 09:07:38;;;;;;;3.40;3.20;;;;;;;18.62;78.59;94884.44;5116321;28;20534;-70
2022/07/09 09:10:05;;;;;;;3.60;3.30;;;;;;;18.63;79.21;94875.69;5116855;28;20184;-70
2022/07/09 09:12:32;;;;;;;3.60;3.25;;;;;;;18.66;79.39;94885.22;5117068;28;20199;-70
2022/07/09 09:14:59;;;;;;;3.40;3.10;;;;;;;18.63;78.79;94886.84;5116011;28;20192;-70
2022/07/09 09:17:27;;;;;;;3.10;2.90;;;;;;;18.59;78.67;94888.06;5116590;28;20221;-70
2022/07/09 09:19:55;;;;;;;3.42;3.15;;;;;;;18.55;78.89;94879.69;5116332;28;20203;-69
2022/07/09 09:22:22;;;;;;;3.35;3.15;;;;;;;18.54;79.26;94886.50;5115939;28;20200;-70
2022/07/09 09:24:53;;;;;;;3.83;3.47;;;;;;;18.49;79.05;94886.94;5115927;28;20260;-70
2022/07/09 09:27:28;;;;;;;3.38;3.08;;;;;;;18.44;79.31;94887.34;5116424;28;20211;-70
2022/07/09 09:29:59;;;;;;;4.10;3.80;;;;;;;18.41;80.45;94883.41;5116984;28;20252;-70
2022/07/09 09:32:26;;;;;;;3.97;3.67;;;;;;;18.42;81.15;94887.78;5115839;28;20200;-70
2022/07/09 09:34:53;;;;;;;3.38;3.17;;;;;;;18.40;81.53;94881.78;5116259;28;20180;-70
2022/07/09 09:37:29;;;;;;;3.55;3.30;;;;;;;18.43;81.36;94882.97;5116721;28;20176;-70
2022/07/09 09:39:56;;;;;;;3.70;3.40;;;;;;;18.48;80.96;94880.56;5115511;28;20237;-70
2022/07/09 09:42:25;;;;;;;3.75;3.55;;;;;;;18.52;81.33;94874.97;5115781;28;20195;-70
2022/07/09 09:44:52;;;;;;;3.05;2.85;;;;;;;18.52;81.28;94877.75;5116434;28;20179;-70
2022/07/09 09:47:22;;;;;;;3.50;3.30;;;;;;;18.54;81.96;94878.13;5115979;28;20222;-70
2022/07/09 09:49:50;;;;;;;3.83;3.53;;;;;;;18.51;81.24;94874.13;5116309;28;20588;-70
2022/07/09 09:52:20;;;;;;;3.80;3.53;;;;;;;18.47;81.51;94881.75;5115218;28;20318;-70
2022/07/09 09:54:49;;;;;;;3.95;3.65;;;;;;;18.41;81.52;94885.38;5115890;28;20534;-70
2022/07/09 09:57:17;;;;;;;4.40;4.00;;;;;;;18.35;81.74;94884.22;5115917;28;20207;-70
2022/07/09 09:59:45;;;;;;;5.30;4.90;;;;;;;18.30;81.84;94885.47;5116208;28;20176;-70
2022/07/09 10:02:13;;;;;;;3.50;3.30;;;;;;;18.27;82.64;94886.28;5115174;28;20223;-70
2022/07/09 10:04:41;;;;;;;4.00;3.70;;;;;;;18.23;82.49;94889.09;5115121;28;20637;-70
2022/07/09 10:07:08;;;;;;;4.07;3.72;;;;;;;18.22;83.11;94893.06;5115933;28;20532;-70
2022/07/09 10:09:35;;;;;;;3.97;3.67;;;;;;;18.23;83.13;94885.50;5115649;28;20512;-70
2022/07/09 10:12:04;;;;;;;3.80;3.50;;;;;;;18.23;82.97;94883.50;5116041;28;20211;-70
2022/07/09 10:14:32;;;;;;;4.03;3.42;;;;;;;18.20;82.41;94889.88;5115707;28;20195;-70
2022/07/09 10:17:11;;;;;;;4.15;3.85;;;;;;;18.17;82.38;94884.31;5115073;28;20204;-70
2022/07/09 10:19:38;;;;;;;4.28;3.88;;;;;;;18.18;82.85;94885.91;5116025;28;20257;-70
2022/07/09 10:22:06;;;;;;;3.60;3.30;;;;;;;18.22;83.12;94886.69;5114632;28;20206;-70
2022/07/09 10:24:34;;;;;;;3.83;3.53;;;;;;;18.22;83.23;94887.47;5114893;28;20195;-70
2022/07/09 10:27:07;;;;;;;3.30;3.00;;;;;;;18.20;82.53;94887.09;5114719;28;20207;-70
2022/07/09 10:29:35;;;;;;;2.72;2.55;;;;;;;18.19;81.84;94890.28;5114603;28;20192;-70
2022/07/09 10:32:02;;;;;;;2.88;2.65;;;;;;;18.20;81.88;94889.09;5115000;28;20199;-70
2022/07/09 10:34:44;;;;;;;2.60;2.45;;;;;;;18.18;81.71;94894.28;5115739;28;20211;-70
2022/07/09 10:37:11;;;;;;;2.58;2.38;;;;;;;18.19;81.93;94902.25;5114465;28;20206;-70
2022/07/09 10:39:38;;;;;;;3.10;2.67;;;;;;;18.20;81.97;94905.84;5114853;28;20211;-70
2022/07/09 10:42:08;;;;;;;2.72;2.53;;;;;;;18.17;81.28;94901.06;5115091;28;20183;-70
2022/07/09 10:44:36;;;;;;;2.28;2.17;;;;;;;18.15;80.90;94909.03;5114921;28;20618;-70
2022/07/09 10:47:04;;;;;;;2.53;2.00;;;;;;;18.14;80.72;94905.47;5114645;28;20631;-70
2022/07/09 10:49:30;;;;;;;2.03;1.92;;;;;;;18.14;80.32;94910.25;5115004;28;20212;-70
2022/07/09 10:51:58;;;;;;;2.03;1.92;;;;;;;18.14;79.47;94911.03;5114647;28;20223;-70
2022/07/09 10:54:25;;;;;;;2.00;1.90;;;;;;;18.17;79.32;94910.22;5115529;28;20223;-70
2022/07/09 10:56:52;;;;;;;1.75;1.65;;;;;;;18.18;78.93;94903.44;5114431;28;20210;-70
2022/07/09 10:59:21;;;;;;;2.40;2.20;;;;;;;18.20;79.21;94903.84;5115447;28;20207;-70
2022/07/09 11:01:47;;;;;;;2.00;1.90;;;;;;;18.22;78.66;94904.22;5114856;28;20187;-70
2022/07/09 11:04:25;;;;;;;2.78;2.22;;;;;;;18.22;78.56;94912.59;5115458;28;20195;-70
2022/07/09 11:06:51;;;;;;;2.15;2.05;;;;;;;18.19;78.17;94910.63;5114269;28;20638;-70
2022/07/09 11:09:18;;;;;;;2.00;1.90;;;;;;;18.20;78.23;94905.84;5114924;28;20187;-70
2022/07/09 11:11:47;;;;;;;2.20;2.10;;;;;;;18.23;78.30;94917.00;5115359;28;20200;-70
2022/07/09 11:14:14;;;;;;;2.40;2.30;;;;;;;18.24;78.55;94909.41;5115363;28;20180;-70
2022/07/09 11:16:42;;;;;;;2.33;2.22;;;;;;;18.22;77.97;94907.00;5114382;28;20299;-69
2022/07/09 11:19:15;;;;;;;2.40;2.20;;;;;;;18.23;77.99;94913.41;5114340;28;20198;-70
2022/07/09 11:21:42;;;;;;;2.28;2.13;;;;;;;18.23;79.38;94914.19;5115063;28;20596;-70
2022/07/09 11:24:16;;;;;;;3.28;2.95;;;;;;;18.27;78.50;94917.78;5114346;28;20184;-70
2022/07/09 11:26:43;;;;;;;2.80;2.60;;;;;;;18.27;78.55;94920.56;5114160;28;20647;-70
2022/07/09 11:29:10;;;;;;;2.63;2.40;;;;;;;18.22;78.12;94914.59;5114323;28;20632;-70
2022/07/09 11:31:38;;;;;;;2.15;1.95;;;;;;;18.18;77.90;94920.19;5114381;28;20200;-69
2022/07/09 11:34:12;;;;;;;2.47;2.30;;;;;;;18.17;78.06;94915.03;5114908;28;20176;-69
2022/07/09 11:36:40;;;;;;;2.60;2.25;;;;;;;18.13;77.11;94914.25;5115200;28;20179;-70